sensor_id;sensor_type;location;lat;lon;timestamp;pressure;altitude;pressure_sealevel;temperature;humidity
6851;BME280;3464;42.728;23.296;2022-10-24T00:01:55;96009.52;;;16.91;62.04
6851;BME280;3464;42.728;23.296;2022-10-24T00:04:22;96001.89;;;16.88;61.94
6851;BME280;3464;42.728;23.296;2022-10-24T00:06:48;95994.69;;;16.89;62.76
6851;BME280;3464;42.728;23.296;2022-10-24T00:09:15;95998.56;;;16.75;62.69
6851;BME280;3464;42.728;23.296;2022-10-24T00:11:42;96000.69;;;16.72;62.82
6851;BME280;3464;42.728;23.296;2022-10-24T00:14:08;95998.98;;;16.77;62.80
6851;BME280;3464;42.728;23.296;2022-10-24T00:16:35;95989.21;;;16.86;62.04
6851;BME280;3464;42.728;23.296;2022-10-24T00:19:02;95999.42;;;16.70;62.44
6851;BME280;3464;42.728;23.296;2022-10-24T00:21:28;95987.98;;;16.69;62.44
6851;BME280;3464;42.728;23.296;2022-10-24T00:23:54;95986.72;;;16.66;62.12
6851;BME280;3464;42.728;23.296;2022-10-24T00:26:21;95990.05;;;16.84;61.47
6851;BME280;3464;42.728;23.296;2022-10-24T00:28:48;95982.91;;;16.73;61.35
6851;BME280;3464;42.728;23.296;2022-10-24T00:31:16;95982.09;;;16.56;62.01
6851;BME280;3464;42.728;23.296;2022-10-24T00:33:42;95980.80;;;16.63;61.92
6851;BME280;3464;42.728;23.296;2022-10-24T00:36:10;95979.19;;;16.27;62.60
6851;BME280;3464;42.728;23.296;2022-10-24T00:38:35;95975.75;;;16.53;62.13
6851;BME280;3464;42.728;23.296;2022-10-24T00:41:02;95980.41;;;16.56;62.17
6851;BME280;3464;42.728;23.296;2022-10-24T00:43:28;95976.63;;;16.52;62.04
6851;BME280;3464;42.728;23.296;2022-10-24T00:45:56;95974.48;;;16.40;62.12
6851;BME280;3464;42.728;23.296;2022-10-24T00:51:10;95980.49;;;16.10;63.14
6851;BME280;3464;42.728;23.296;2022-10-24T00:53:34;95983.41;;;16.22;62.89
6851;BME280;3464;42.728;23.296;2022-10-24T00:56:01;95983.39;;;16.37;62.25
6851;BME280;3464;42.728;23.296;2022-10-24T00:58:28;95984.17;;;16.66;61.53
6851;BME280;3464;42.728;23.296;2022-10-24T01:00:54;95988.03;;;16.58;61.66
6851;BME280;3464;42.728;23.296;2022-10-24T01:03:21;95983.39;;;16.53;61.66
6851;BME280;3464;42.728;23.296;2022-10-24T01:05:53;95979.16;;;16.57;61.86
6851;BME280;3464;42.728;23.296;2022-10-24T01:08:25;95987.20;;;16.53;61.75
6851;BME280;3464;42.728;23.296;2022-10-24T01:11:14;95988.48;;;16.28;62.42
6851;BME280;3464;42.728;23.296;2022-10-24T01:13:47;95988.05;;;16.29;62.84
6851;BME280;3464;42.728;23.296;2022-10-24T01:16:11;95978.72;;;16.60;61.90
6851;BME280;3464;42.728;23.296;2022-10-24T01:18:38;95981.27;;;16.57;61.82
6851;BME280;3464;42.728;23.296;2022-10-24T01:21:27;95977.45;;;16.51;62.14
6851;BME280;3464;42.728;23.296;2022-10-24T01:24:03;95979.57;;;16.41;62.28
6851;BME280;3464;42.728;23.296;2022-10-24T01:26:53;95981.30;;;16.36;62.53
6851;BME280;3464;42.728;23.296;2022-10-24T01:29:43;95983.41;;;16.29;62.73
6851;BME280;3464;42.728;23.296;2022-10-24T01:32:08;95980.03;;;16.22;62.96
6851;BME280;3464;42.728;23.296;2022-10-24T01:37:22;95981.75;;;16.06;63.42
6851;BME280;3464;42.728;23.296;2022-10-24T01:39:47;95976.23;;;16.21;62.99
6851;BME280;3464;42.728;23.296;2022-10-24T01:42:13;95973.71;;;16.12;63.20
6851;BME280;3464;42.728;23.296;2022-10-24T01:44:40;95986.78;;;16.29;62.93
6851;BME280;3464;42.728;23.296;2022-10-24T01:47:10;95983.84;;;16.21;63.24
6851;BME280;3464;42.728;23.296;2022-10-24T01:49:35;95980.89;;;16.18;63.55
6851;BME280;3464;42.728;23.296;2022-10-24T01:52:02;95984.73;;;16.16;63.59
6851;BME280;3464;42.728;23.296;2022-10-24T01:54:27;95977.09;;;16.08;63.71
6851;BME280;3464;42.728;23.296;2022-10-24T01:56:54;95963.58;;;15.98;63.36
6851;BME280;3464;42.728;23.296;2022-10-24T01:59:41;95978.81;;;16.09;63.26
6851;BME280;3464;42.728;23.296;2022-10-24T02:02:13;95978.80;;;16.00;63.90
6851;BME280;3464;42.728;23.296;2022-10-24T02:04:40;95977.55;;;16.06;63.73
6851;BME280;3464;42.728;23.296;2022-10-24T02:07:05;95980.91;;;15.98;63.72
6851;BME280;3464;42.728;23.296;2022-10-24T02:09:31;95977.52;;;16.09;63.37
6851;BME280;3464;42.728;23.296;2022-10-24T02:11:58;95982.19;;;16.07;63.69
6851;BME280;3464;42.728;23.296;2022-10-24T02:14:32;95971.63;;;15.83;64.23
6851;BME280;3464;42.728;23.296;2022-10-24T02:16:56;95969.48;;;16.13;63.52
6851;BME280;3464;42.728;23.296;2022-10-24T02:19:23;95978.81;;;16.07;64.13
6851;BME280;3464;42.728;23.296;2022-10-24T02:22:25;95981.33;;;16.20;63.32
6851;BME280;3464;42.728;23.296;2022-10-24T02:24:50;95981.73;;;16.16;63.78
6851;BME280;3464;42.728;23.296;2022-10-24T02:27:17;95981.73;;;16.15;63.69
6851;BME280;3464;42.728;23.296;2022-10-24T02:29:51;95980.03;;;16.18;63.63
6851;BME280;3464;42.728;23.296;2022-10-24T02:32:20;95984.68;;;16.25;63.63
6851;BME280;3464;42.728;23.296;2022-10-24T02:34:44;95982.98;;;16.29;63.63
6851;BME280;3464;42.728;23.296;2022-10-24T02:37:11;95974.11;;;16.19;63.59
6851;BME280;3464;42.728;23.296;2022-10-24T02:39:38;95980.92;;;16.01;64.04
6851;BME280;3464;42.728;23.296;2022-10-24T02:42:04;95980.92;;;15.72;64.67
6851;BME280;3464;42.728;23.296;2022-10-24T02:44:31;95985.98;;;16.15;63.58
6851;BME280;3464;42.728;23.296;2022-10-24T02:46:58;95974.58;;;15.86;64.17
6851;BME280;3464;42.728;23.296;2022-10-24T02:49:24;95977.12;;;15.93;64.17
6851;BME280;3464;42.728;23.296;2022-10-24T02:51:51;95971.63;;;15.73;64.52
6851;BME280;3464;42.728;23.296;2022-10-24T02:54:17;95971.61;;;15.96;63.67
6851;BME280;3464;42.728;23.296;2022-10-24T02:56:46;95975.01;;;15.93;63.82
6851;BME280;3464;42.728;23.296;2022-10-24T02:59:11;95971.19;;;15.90;63.82
6851;BME280;3464;42.728;23.296;2022-10-24T03:01:38;95977.13;;;15.70;64.34
6851;BME280;3464;42.728;23.296;2022-10-24T03:04:04;95972.04;;;15.71;64.32
6851;BME280;3464;42.728;23.296;2022-10-24T03:06:31;95972.47;;;15.84;63.66
6851;BME280;3464;42.728;23.296;2022-10-24T03:08:58;95970.36;;;15.73;63.92
6851;BME280;3464;42.728;23.296;2022-10-24T03:11:24;95966.98;;;15.56;64.32
6851;BME280;3464;42.728;23.296;2022-10-24T03:13:51;95972.45;;;15.59;64.30
6851;BME280;3464;42.728;23.296;2022-10-24T03:16:18;95972.04;;;15.72;63.92
6851;BME280;3464;42.728;23.296;2022-10-24T03:18:44;95971.98;;;15.23;65.32
6851;BME280;3464;42.728;23.296;2022-10-24T03:21:11;95970.70;;;15.32;65.17
6851;BME280;3464;42.728;23.296;2022-10-24T03:23:37;95967.34;;;15.36;65.21
6851;BME280;3464;42.728;23.296;2022-10-24T03:26:04;95959.78;;;15.52;64.69
6851;BME280;3464;42.728;23.296;2022-10-24T03:28:31;95959.36;;;15.50;64.44
6851;BME280;3464;42.728;23.296;2022-10-24T03:30:58;95963.16;;;15.47;64.45
6851;BME280;3464;42.728;23.296;2022-10-24T03:33:24;95968.66;;;15.44;64.48
6851;BME280;3464;42.728;23.296;2022-10-24T03:35:52;95966.91;;;15.34;64.92
6851;BME280;3464;42.728;23.296;2022-10-24T03:38:18;95968.19;;;15.29;64.95
6851;BME280;3464;42.728;23.296;2022-10-24T03:40:44;95967.73;;;15.09;65.80
6851;BME280;3464;42.728;23.296;2022-10-24T03:43:11;95972.76;;;15.01;66.39
6851;BME280;3464;42.728;23.296;2022-10-24T03:45:38;95974.11;;;15.31;65.35
6851;BME280;3464;42.728;23.296;2022-10-24T03:48:05;95979.55;;;15.15;65.77
6851;BME280;3464;42.728;23.296;2022-10-24T03:50:31;95971.14;;;15.29;65.38
6851;BME280;3464;42.728;23.296;2022-10-24T03:52:58;95966.50;;;15.31;65.34
6851;BME280;3464;42.728;23.296;2022-10-24T03:55:25;95967.77;;;15.28;65.09
6851;BME280;3464;42.728;23.296;2022-10-24T03:57:51;95968.19;;;15.25;65.35
6851;BME280;3464;42.728;23.296;2022-10-24T04:00:17;95972.86;;;15.44;64.89
6851;BME280;3464;42.728;23.296;2022-10-24T04:05:28;95961.89;;;15.52;65.00
6851;BME280;3464;42.728;23.296;2022-10-24T04:07:55;95958.50;;;15.45;65.22
6851;BME280;3464;42.728;23.296;2022-10-24T04:10:22;95962.32;;;15.45;65.21
6851;BME280;3464;42.728;23.296;2022-10-24T04:12:48;95960.19;;;15.55;64.93
6851;BME280;3464;42.728;23.296;2022-10-24T04:15:15;95960.61;;;15.43;65.66
6851;BME280;3464;42.728;23.296;2022-10-24T04:17:41;95958.45;;;15.34;66.02
6851;BME280;3464;42.728;23.296;2022-10-24T04:20:08;95958.50;;;15.43;65.64
6851;BME280;3464;42.728;23.296;2022-10-24T04:22:35;95962.23;;;15.09;66.08
6851;BME280;3464;42.728;23.296;2022-10-24T04:25:02;95965.59;;;15.05;66.58
6851;BME280;3464;42.728;23.296;2022-10-24T04:27:28;95968.11;;;15.05;66.71
6851;BME280;3464;42.728;23.296;2022-10-24T04:29:55;95971.10;;;15.09;66.29
6851;BME280;3464;42.728;23.296;2022-10-24T04:32:21;95963.52;;;15.15;65.98
6851;BME280;3464;42.728;23.296;2022-10-24T04:34:48;95967.28;;;15.08;66.37
6851;BME280;3464;42.728;23.296;2022-10-24T04:37:15;95974.94;;;15.26;65.81
6851;BME280;3464;42.728;23.296;2022-10-24T04:39:41;95972.38;;;15.22;65.93
6851;BME280;3464;42.728;23.296;2022-10-24T04:42:08;95978.28;;;15.08;66.35
6851;BME280;3464;42.728;23.296;2022-10-24T04:44:35;95978.27;;;14.97;66.69
6851;BME280;3464;42.728;23.296;2022-10-24T04:47:02;95984.87;;;14.65;68.10
6851;BME280;3464;42.728;23.296;2022-10-24T04:49:29;95980.79;;;15.05;67.16
6851;BME280;3464;42.728;23.296;2022-10-24T04:51:56;95979.09;;;14.95;67.12
6851;BME280;3464;42.728;23.296;2022-10-24T04:54:23;95984.59;;;14.98;67.35
6851;BME280;3464;42.728;23.296;2022-10-24T04:56:50;95982.12;;;15.26;66.61
6851;BME280;3464;42.728;23.296;2022-10-24T04:59:17;95977.86;;;15.15;66.40
6851;BME280;3464;42.728;23.296;2022-10-24T05:01:43;95978.32;;;15.35;66.15
6851;BME280;3464;42.728;23.296;2022-10-24T05:04:10;95978.81;;;15.63;65.38
6851;BME280;3464;42.728;23.296;2022-10-24T05:06:37;95986.81;;;15.41;65.85
6851;BME280;3464;42.728;23.296;2022-10-24T05:09:03;95988.95;;;15.39;66.06
6851;BME280;3464;42.728;23.296;2022-10-24T05:11:30;95988.12;;;15.54;65.90
6851;BME280;3464;42.728;23.296;2022-10-24T05:13:56;95986.44;;;15.89;64.98
6851;BME280;3464;42.728;23.296;2022-10-24T05:16:23;95983.87;;;16.15;64.22
6851;BME280;3464;42.728;23.296;2022-10-24T05:18:50;95986.41;;;16.20;63.86
6851;BME280;3464;42.728;23.296;2022-10-24T05:21:16;95991.87;;;16.40;63.34
6851;BME280;3464;42.728;23.296;2022-10-24T05:23:43;95986.26;;;16.81;62.91
6851;BME280;3464;42.728;23.296;2022-10-24T05:26:09;95984.62;;;16.68;62.74
6851;BME280;3464;42.728;23.296;2022-10-24T05:28:36;95987.13;;;16.72;62.27
6851;BME280;3464;42.728;23.296;2022-10-24T05:31:02;95980.06;;;17.31;61.45
6851;BME280;3464;42.728;23.296;2022-10-24T05:33:29;95983.58;;;17.78;59.91
6851;BME280;3464;42.728;23.296;2022-10-24T05:35:56;95984.45;;;18.25;58.14
6851;BME280;3464;42.728;23.296;2022-10-24T05:38:23;95986.64;;;18.61;58.11
6851;BME280;3464;42.728;23.296;2022-10-24T05:40:49;95978.98;;;18.96;57.48
6851;BME280;3464;42.728;23.296;2022-10-24T05:43:16;95991.06;;;19.49;56.49
6851;BME280;3464;42.728;23.296;2022-10-24T05:45:43;95988.25;;;20.45;54.61
6851;BME280;3464;42.728;23.296;2022-10-24T05:48:10;95993.55;;;20.09;54.15
6851;BME280;3464;42.728;23.296;2022-10-24T05:50:37;95994.05;;;20.04;54.06
6851;BME280;3464;42.728;23.296;2022-10-24T05:53:04;95990.31;;;20.24;53.84
6851;BME280;3464;42.728;23.296;2022-10-24T05:55:30;95994.98;;;20.93;52.02
6851;BME280;3464;42.728;23.296;2022-10-24T05:57:58;95997.70;;;21.48;50.69
6851;BME280;3464;42.728;23.296;2022-10-24T06:00:24;96006.59;;;20.67;51.66
6851;BME280;3464;42.728;23.296;2022-10-24T06:02:51;96011.92;;;20.31;52.57
6851;BME280;3464;42.728;23.296;2022-10-24T06:05:18;96010.86;;;19.92;52.92
6851;BME280;3464;42.728;23.296;2022-10-24T06:07:44;96011.30;;;19.90;52.88
6851;BME280;3464;42.728;23.296;2022-10-24T06:10:11;96013.67;;;20.03;52.27
6851;BME280;3464;42.728;23.296;2022-10-24T06:12:37;96014.47;;;20.05;52.50
6851;BME280;3464;42.728;23.296;2022-10-24T06:15:05;96004.02;;;19.94;52.52
6851;BME280;3464;42.728;23.296;2022-10-24T06:17:32;95998.77;;;20.52;51.67
6851;BME280;3464;42.728;23.296;2022-10-24T06:19:58;96002.47;;;20.82;50.86
6851;BME280;3464;42.728;23.296;2022-10-24T06:22:25;96001.62;;;20.82;50.77
6851;BME280;3464;42.728;23.296;2022-10-24T06:24:51;96012.25;;;20.83;50.46
6851;BME280;3464;42.728;23.296;2022-10-24T06:27:18;96019.66;;;20.52;51.11
6851;BME280;3464;42.728;23.296;2022-10-24T06:29:44;96017.17;;;20.71;50.53
6851;BME280;3464;42.728;23.296;2022-10-24T06:32:11;96024.91;;;20.90;50.59
6851;BME280;3464;42.728;23.296;2022-10-24T06:34:38;96015.63;;;21.09;50.12
6851;BME280;3464;42.728;23.296;2022-10-24T06:37:04;96017.67;;;21.13;49.98
6851;BME280;3464;42.728;23.296;2022-10-24T06:39:31;96023.41;;;21.25;49.87
6851;BME280;3464;42.728;23.296;2022-10-24T06:41:57;96026.20;;;21.12;49.62
6851;BME280;3464;42.728;23.296;2022-10-24T06:44:24;96021.17;;;21.08;49.99
6851;BME280;3464;42.728;23.296;2022-10-24T06:46:50;96028.00;;;21.08;49.64
6851;BME280;3464;42.728;23.296;2022-10-24T06:49:17;96036.67;;;20.77;50.36
6851;BME280;3464;42.728;23.296;2022-10-24T06:51:46;96033.01;;;20.20;51.69
6851;BME280;3464;42.728;23.296;2022-10-24T06:54:13;96035.16;;;20.18;51.73
6851;BME280;3464;42.728;23.296;2022-10-24T06:56:39;96029.14;;;20.92;50.43
6851;BME280;3464;42.728;23.296;2022-10-24T06:59:08;96029.67;;;20.64;50.41
6851;BME280;3464;42.728;23.296;2022-10-24T07:01:33;96029.94;;;20.97;50.35
6851;BME280;3464;42.728;23.296;2022-10-24T07:04:00;96032.90;;;20.98;50.32
6851;BME280;3464;42.728;23.296;2022-10-24T07:06:27;96022.61;;;21.21;50.01
6851;BME280;3464;42.728;23.296;2022-10-24T07:08:54;96024.46;;;21.34;49.63
6851;BME280;3464;42.728;23.296;2022-10-24T07:11:20;96026.70;;;21.68;49.35
6851;BME280;3464;42.728;23.296;2022-10-24T07:13:46;96023.39;;;21.63;48.77
6851;BME280;3464;42.728;23.296;2022-10-24T07:16:13;96026.14;;;21.55;49.48
6851;BME280;3464;42.728;23.296;2022-10-24T07:18:40;96021.02;;;21.76;49.14
6851;BME280;3464;42.728;23.296;2022-10-24T07:21:08;96027.16;;;21.87;49.46
6851;BME280;3464;42.728;23.296;2022-10-24T07:23:34;96026.98;;;21.94;48.94
6851;BME280;3464;42.728;23.296;2022-10-24T07:26:04;96013.95;;;22.03;48.81
6851;BME280;3464;42.728;23.296;2022-10-24T07:28:31;96027.80;;;21.96;48.99
6851;BME280;3464;42.728;23.296;2022-10-24T07:30:58;96026.55;;;22.12;49.06
6851;BME280;3464;42.728;23.296;2022-10-24T07:33:25;96019.45;;;21.50;49.48
6851;BME280;3464;42.728;23.296;2022-10-24T07:35:52;96018.06;;;21.72;49.39
6851;BME280;3464;42.728;23.296;2022-10-24T07:38:19;96030.05;;;22.09;48.56
6851;BME280;3464;42.728;23.296;2022-10-24T07:40:45;96030.09;;;22.41;48.33
6851;BME280;3464;42.728;23.296;2022-10-24T07:43:12;96031.44;;;22.05;48.17
6851;BME280;3464;42.728;23.296;2022-10-24T07:45:40;96037.14;;;21.19;49.73
6851;BME280;3464;42.728;23.296;2022-10-24T07:48:06;96027.13;;;21.69;49.58
6851;BME280;3464;42.728;23.296;2022-10-24T07:50:33;96018.69;;;21.64;48.94
6851;BME280;3464;42.728;23.296;2022-10-24T07:52:59;96016.33;;;22.11;48.75
6851;BME280;3464;42.728;23.296;2022-10-24T07:55:26;96010.60;;;22.01;48.56
6851;BME280;3464;42.728;23.296;2022-10-24T07:57:53;96010.31;;;21.94;48.75
6851;BME280;3464;42.728;23.296;2022-10-24T08:00:20;96014.59;;;22.12;48.59
6851;BME280;3464;42.728;23.296;2022-10-24T08:02:46;96013.48;;;21.87;48.91
6851;BME280;3464;42.728;23.296;2022-10-24T08:05:13;96003.94;;;22.45;48.51
6851;BME280;3464;42.728;23.296;2022-10-24T08:07:40;95996.95;;;22.82;47.46
6851;BME280;3464;42.728;23.296;2022-10-24T08:10:09;95995.87;;;22.75;47.48
6851;BME280;3464;42.728;23.296;2022-10-24T08:12:33;95998.80;;;22.45;47.93
6851;BME280;3464;42.728;23.296;2022-10-24T08:15:01;95997.71;;;22.54;47.82
6851;BME280;3464;42.728;23.296;2022-10-24T08:17:27;95999.34;;;22.40;48.24
6851;BME280;3464;42.728;23.296;2022-10-24T08:19:54;95992.81;;;22.44;47.60
6851;BME280;3464;42.728;23.296;2022-10-24T08:22:20;95999.55;;;22.48;47.59
6851;BME280;3464;42.728;23.296;2022-10-24T08:24:47;95993.50;;;22.98;46.92
6851;BME280;3464;42.728;23.296;2022-10-24T08:27:14;95993.41;;;22.87;46.97
6851;BME280;3464;42.728;23.296;2022-10-24T08:29:41;96005.11;;;23.11;47.20
6851;BME280;3464;42.728;23.296;2022-10-24T08:32:08;95998.98;;;23.17;46.49
6851;BME280;3464;42.728;23.296;2022-10-24T08:34:36;95991.16;;;23.20;46.33
6851;BME280;3464;42.728;23.296;2022-10-24T08:37:02;95987.89;;;23.30;46.30
6851;BME280;3464;42.728;23.296;2022-10-24T08:39:29;95987.11;;;23.42;46.27
6851;BME280;3464;42.728;23.296;2022-10-24T08:41:59;95979.80;;;23.57;46.70
6851;BME280;3464;42.728;23.296;2022-10-24T08:44:28;95985.42;;;23.55;46.27
6851;BME280;3464;42.728;23.296;2022-10-24T08:47:04;95974.02;;;23.78;45.91
6851;BME280;3464;42.728;23.296;2022-10-24T08:49:37;95973.23;;;23.61;46.00
6851;BME280;3464;42.728;23.296;2022-10-24T08:52:26;95971.82;;;23.79;45.83
6851;BME280;3464;42.728;23.296;2022-10-24T08:54:48;95969.14;;;23.97;45.55
6851;BME280;3464;42.728;23.296;2022-10-24T08:57:23;95966.36;;;24.16;44.63
6851;BME280;3464;42.728;23.296;2022-10-24T08:59:49;95971.63;;;24.38;44.42
6851;BME280;3464;42.728;23.296;2022-10-24T09:02:17;95961.28;;;24.02;45.36
6851;BME280;3464;42.728;23.296;2022-10-24T09:04:54;95962.30;;;23.82;45.36
6851;BME280;3464;42.728;23.296;2022-10-24T09:10:34;95958.09;;;24.07;45.22
6851;BME280;3464;42.728;23.296;2022-10-24T09:13:07;95952.91;;;23.68;45.86
6851;BME280;3464;42.728;23.296;2022-10-24T09:15:31;95948.37;;;24.03;45.45
6851;BME280;3464;42.728;23.296;2022-10-24T09:18:00;95952.31;;;24.62;44.68
6851;BME280;3464;42.728;23.296;2022-10-24T09:20:28;95952.48;;;24.71;44.76
6851;BME280;3464;42.728;23.296;2022-10-24T09:22:57;95945.31;;;25.02;44.50
6851;BME280;3464;42.728;23.296;2022-10-24T09:25:28;95942.95;;;25.30;43.67
6851;BME280;3464;42.728;23.296;2022-10-24T09:27:58;95945.95;;;24.85;43.81
6851;BME280;3464;42.728;23.296;2022-10-24T09:30:26;95937.30;;;24.99;44.11
6851;BME280;3464;42.728;23.296;2022-10-24T09:32:54;95937.66;;;25.23;43.48
6851;BME280;3464;42.728;23.296;2022-10-24T09:35:24;95933.28;;;25.02;43.74
6851;BME280;3464;42.728;23.296;2022-10-24T09:37:50;95933.89;;;25.20;43.65
6851;BME280;3464;42.728;23.296;2022-10-24T09:40:22;95932.30;;;25.51;43.42
6851;BME280;3464;42.728;23.296;2022-10-24T09:42:53;95932.39;;;25.70;42.89
6851;BME280;3464;42.728;23.296;2022-10-24T09:45:36;95929.23;;;25.53;42.87
6851;BME280;3464;42.728;23.296;2022-10-24T09:48:03;95926.56;;;25.65;42.78
6851;BME280;3464;42.728;23.296;2022-10-24T09:50:31;95923.91;;;25.67;42.83
6851;BME280;3464;42.728;23.296;2022-10-24T09:53:01;95922.00;;;25.62;42.97
6851;BME280;3464;42.728;23.296;2022-10-24T09:55:29;95920.60;;;25.09;44.22
6851;BME280;3464;42.728;23.296;2022-10-24T09:57:57;95924.78;;;25.34;43.63
6851;BME280;3464;42.728;23.296;2022-10-24T10:00:25;95917.05;;;25.34;43.46
6851;BME280;3464;42.728;23.296;2022-10-24T10:02:57;95917.41;;;25.57;43.30
6851;BME280;3464;42.728;23.296;2022-10-24T10:05:27;95906.16;;;26.02;42.58
6851;BME280;3464;42.728;23.296;2022-10-24T10:07:54;95905.91;;;26.28;42.30
6851;BME280;3464;42.728;23.296;2022-10-24T10:10:25;95903.27;;;26.30;41.94
6851;BME280;3464;42.728;23.296;2022-10-24T10:13:07;95904.20;;;26.08;42.20
6851;BME280;3464;42.728;23.296;2022-10-24T10:15:38;95900.09;;;26.43;41.66
6851;BME280;3464;42.728;23.296;2022-10-24T10:20:39;95893.53;;;26.36;41.83
6851;BME280;3464;42.728;23.296;2022-10-24T10:23:25;95891.62;;;26.50;41.75
6851;BME280;3464;42.728;23.296;2022-10-24T10:26:04;95886.47;;;26.60;41.43
6851;BME280;3464;42.728;23.296;2022-10-24T10:28:32;95890.05;;;26.57;41.80
6851;BME280;3464;42.728;23.296;2022-10-24T10:30:58;95877.48;;;26.48;41.53
6851;BME280;3464;42.728;23.296;2022-10-24T10:33:54;95884.91;;;26.46;41.81
6851;BME280;3464;42.728;23.296;2022-10-24T10:36:20;95874.50;;;26.57;41.46
6851;BME280;3464;42.728;23.296;2022-10-24T10:39:23;95874.92;;;26.58;41.47
6851;BME280;3464;42.728;23.296;2022-10-24T10:42:06;95868.53;;;26.56;41.59
6851;BME280;3464;42.728;23.296;2022-10-24T10:44:47;95864.77;;;26.83;41.17
6851;BME280;3464;42.728;23.296;2022-10-24T10:47:35;95862.75;;;26.70;41.70
6851;BME280;3464;42.728;23.296;2022-10-24T10:52:40;95853.02;;;27.50;40.26
6851;BME280;3464;42.728;23.296;2022-10-24T10:55:19;95849.82;;;27.71;39.58
6851;BME280;3464;42.728;23.296;2022-10-24T10:57:51;95842.98;;;27.78;39.63
6851;BME280;3464;42.728;23.296;2022-10-24T11:00:48;95847.63;;;27.09;40.49
6851;BME280;3464;42.728;23.296;2022-10-24T11:03:36;95842.65;;;27.33;40.31
6851;BME280;3464;42.728;23.296;2022-10-24T11:12:00;95833.53;;;27.87;39.57
6851;BME280;3464;42.728;23.296;2022-10-24T11:14:37;95824.14;;;27.84;39.63
6851;BME280;3464;42.728;23.296;2022-10-24T11:17:10;95825.38;;;27.94;39.40
6851;BME280;3464;42.728;23.296;2022-10-24T11:20:15;95821.01;;;28.13;39.22
6851;BME280;3464;42.728;23.296;2022-10-24T11:22:36;95822.55;;;27.82;39.60
6851;BME280;3464;42.728;23.296;2022-10-24T11:25:05;95819.13;;;28.07;39.28
6851;BME280;3464;42.728;23.296;2022-10-24T11:27:31;95812.81;;;28.12;39.09
6851;BME280;3464;42.728;23.296;2022-10-24T11:29:59;95811.44;;;27.71;39.67
6851;BME280;3464;42.728;23.296;2022-10-24T11:32:36;95801.98;;;28.13;39.20
6851;BME280;3464;42.728;23.296;2022-10-24T11:35:04;95799.30;;;28.31;38.79
6851;BME280;3464;42.728;23.296;2022-10-24T11:37:32;95797.33;;;28.03;39.06
6851;BME280;3464;42.728;23.296;2022-10-24T11:40:11;95791.02;;;27.92;39.41
6851;BME280;3464;42.728;23.296;2022-10-24T11:42:40;95785.09;;;28.10;39.09
6851;BME280;3464;42.728;23.296;2022-10-24T11:45:10;95792.34;;;28.49;38.73
6851;BME280;3464;42.728;23.296;2022-10-24T11:48:00;95783.39;;;28.38;38.87
6851;BME280;3464;42.728;23.296;2022-10-24T11:50:53;95782.70;;;28.52;38.54
6851;BME280;3464;42.728;23.296;2022-10-24T11:55:55;95775.72;;;28.68;38.23
6851;BME280;3464;42.728;23.296;2022-10-24T11:58:21;95774.11;;;28.67;38.12
6851;BME280;3464;42.728;23.296;2022-10-24T12:06:42;95764.39;;;28.06;39.00
6851;BME280;3464;42.728;23.296;2022-10-24T12:09:17;95765.27;;;28.22;38.87
6851;BME280;3464;42.728;23.296;2022-10-24T12:11:45;95758.11;;;28.27;38.75
6851;BME280;3464;42.728;23.296;2022-10-24T12:14:20;95757.48;;;28.47;38.59
6851;BME280;3464;42.728;23.296;2022-10-24T12:17:04;95756.63;;;28.22;38.87
6851;BME280;3464;42.728;23.296;2022-10-24T12:19:28;95750.20;;;28.29;38.71
6851;BME280;3464;42.728;23.296;2022-10-24T12:21:57;95745.30;;;28.88;37.95
6851;BME280;3464;42.728;23.296;2022-10-24T12:24:26;95738.92;;;29.01;37.71
6851;BME280;3464;42.728;23.296;2022-10-24T12:26:56;95737.86;;;28.89;37.81
6851;BME280;3464;42.728;23.296;2022-10-24T12:29:24;95731.71;;;29.14;37.58
6851;BME280;3464;42.728;23.296;2022-10-24T12:31:52;95733.69;;;29.10;37.61
6851;BME280;3464;42.728;23.296;2022-10-24T12:34:29;95731.19;;;28.93;37.80
6851;BME280;3464;42.728;23.296;2022-10-24T12:37:09;95726.75;;;29.02;37.72
6851;BME280;3464;42.728;23.296;2022-10-24T12:39:42;95726.53;;;28.99;37.59
6851;BME280;3464;42.728;23.296;2022-10-24T12:43:04;95723.31;;;29.18;37.46
6851;BME280;3464;42.728;23.296;2022-10-24T12:44:51;95728.53;;;29.32;37.20
6851;BME280;3464;42.728;23.296;2022-10-24T12:56:08;95722.69;;;29.73;36.59
6851;BME280;3464;42.728;23.296;2022-10-24T12:58:37;95715.48;;;29.55;36.76
6851;BME280;3464;42.728;23.296;2022-10-24T13:01:06;95711.75;;;29.23;37.10
6851;BME280;3464;42.728;23.296;2022-10-24T13:10:08;95708.64;;;29.54;36.58
6851;BME280;3464;42.728;23.296;2022-10-24T13:16:02;95704.66;;;29.34;36.74
6851;BME280;3464;42.728;23.296;2022-10-24T13:28:37;95704.13;;;29.80;36.06
6851;BME280;3464;42.728;23.296;2022-10-24T13:34:16;95697.36;;;29.91;35.85
6851;BME280;3464;42.728;23.296;2022-10-24T13:36:42;95695.26;;;29.83;35.94
6851;BME280;3464;42.728;23.296;2022-10-24T13:39:10;95699.39;;;29.86;35.89
6851;BME280;3464;42.728;23.296;2022-10-24T13:41:42;95699.72;;;29.95;35.80
6851;BME280;3464;42.728;23.296;2022-10-24T13:52:23;95693.75;;;29.80;35.85
6851;BME280;3464;42.728;23.296;2022-10-24T13:54:48;95685.77;;;29.97;35.89
6851;BME280;3464;42.728;23.296;2022-10-24T13:57:25;95682.82;;;29.67;36.26
6851;BME280;3464;42.728;23.296;2022-10-24T13:59:54;95681.24;;;29.56;36.17
6851;BME280;3464;42.728;23.296;2022-10-24T14:02:20;95678.91;;;29.45;36.37
6851;BME280;3464;42.728;23.296;2022-10-24T14:04:48;95677.09;;;29.69;36.10
6851;BME280;3464;42.728;23.296;2022-10-24T14:07:19;95682.36;;;29.59;36.17
6851;BME280;3464;42.728;23.296;2022-10-24T14:09:44;95681.41;;;29.62;36.34
6851;BME280;3464;42.728;23.296;2022-10-24T14:12:19;95676.75;;;29.52;36.62
6851;BME280;3464;42.728;23.296;2022-10-24T14:14:47;95673.73;;;29.52;36.74
6851;BME280;3464;42.728;23.296;2022-10-24T14:17:22;95675.59;;;29.43;36.96
6851;BME280;3464;42.728;23.296;2022-10-24T14:19:51;95671.66;;;29.29;37.22
6851;BME280;3464;42.728;23.296;2022-10-24T14:22:21;95677.32;;;29.28;37.26
6851;BME280;3464;42.728;23.296;2022-10-24T14:24:46;95669.47;;;29.22;37.64
6851;BME280;3464;42.728;23.296;2022-10-24T14:27:16;95672.97;;;28.91;38.11
6851;BME280;3464;42.728;23.296;2022-10-24T14:29:52;95672.89;;;28.92;38.15
6851;BME280;3464;42.728;23.296;2022-10-24T14:32:17;95673.83;;;28.61;38.69